Time;durP1;ratioP1;P1;durP2;ratioP2;P2;SDS_P1;SDS_P2;PMS_P1;PMS_P2;Temp;Humidity;BMP_temperature;BMP_pressure;BME280_temperature;BME280_humidity;BME280_pressure;Samples;Min_cycle;Max_cycle;Signal;HPM_P1;HPM_P2
2022/08/06 00:00:44;;;;;;;4.88;4.15;;;;;;;23.87;67.99;100570.72;5033254;28;20489;-74
2022/08/06 00:03:10;;;;;;;5.78;4.40;;;;;;;23.74;68.21;100560.03;5032131;28;20032;-75
2022/08/06 00:05:35;;;;;;;6.88;3.78;;;;;;;23.65;68.04;100568.72;5033579;28;20029;-72
2022/08/06 00:08:01;;;;;;;6.40;3.85;;;;;;;23.56;68.09;100576.44;5037398;28;20079;-75
2022/08/06 00:10:26;;;;;;;6.32;3.10;;;;;;;23.42;68.82;100583.78;5037332;28;20052;-75
2022/08/06 00:12:52;;;;;;;5.90;3.03;;;;;;;23.57;67.98;100588.88;5037314;28;20037;-76
2022/08/06 00:15:18;;;;;;;4.80;3.70;;;;;;;23.70;67.63;100586.22;5037175;28;20481;-75
2022/08/06 00:17:45;;;;;;;5.68;3.45;;;;;;;23.51;68.35;100591.19;5037212;28;20029;-75
2022/08/06 00:20:13;;;;;;;4.95;3.63;;;;;;;22.99;69.71;100603.78;5037083;28;20037;-73
2022/08/06 00:22:38;;;;;;;4.82;3.05;;;;;;;23.00;70.10;100596.59;5037590;28;20028;-75
2022/08/06 00:25:09;;;;;;;5.38;3.50;;;;;;;23.07;69.80;100579.97;5036856;28;20022;-75
2022/08/06 00:27:35;;;;;;;5.00;3.22;;;;;;;23.24;68.71;100586.81;5036852;28;20029;-75
2022/08/06 00:30:00;;;;;;;5.07;3.17;;;;;;;23.47;67.89;100582.50;5035670;28;20029;-75
2022/08/06 00:32:26;;;;;;;6.38;3.78;;;;;;;23.46;67.99;100587.94;5036917;28;20034;-75
2022/08/06 00:34:51;;;;;;;4.70;3.88;;;;;;;23.39;68.17;100590.22;5035637;28;20033;-74
2022/08/06 00:37:17;;;;;;;5.68;3.80;;;;;;;23.26;68.33;100606.34;5036675;28;20085;-75
2022/08/06 00:39:42;;;;;;;8.10;4.32;;;;;;;22.97;69.19;100615.56;5036823;28;20045;-75
2022/08/06 00:42:07;;;;;;;6.63;3.60;;;;;;;23.16;68.53;100616.00;5036626;28;20032;-75
2022/08/06 00:44:33;;;;;;;7.55;4.03;;;;;;;22.98;69.11;100625.31;5036609;28;20431;-75
2022/08/06 00:46:59;;;;;;;5.05;3.53;;;;;;;23.03;68.93;100615.16;5036612;28;20384;-75
2022/08/06 00:49:25;;;;;;;7.50;4.20;;;;;;;23.08;68.65;100615.66;5036562;28;20046;-75
2022/08/06 00:51:51;;;;;;;6.65;3.80;;;;;;;23.15;68.24;100608.91;5036380;28;20022;-75
2022/08/06 00:54:16;;;;;;;5.50;3.25;;;;;;;23.24;67.97;100610.94;5035340;28;20033;-75
2022/08/06 00:56:42;;;;;;;7.85;4.18;;;;;;;23.19;68.27;100607.75;5018556;28;20069;-75
2022/08/06 00:59:07;;;;;;;5.53;3.50;;;;;;;23.31;67.71;100622.94;5036394;28;20026;-75
2022/08/06 01:01:37;;;;;;;5.53;3.58;;;;;;;23.34;67.61;100621.88;5035172;28;20018;-75
2022/08/06 01:04:02;;;;;;;7.88;3.60;;;;;;;23.13;67.80;100632.28;5036339;28;20029;-75
2022/08/06 01:06:28;;;;;;;7.72;3.30;;;;;;;23.07;68.01;100632.72;5036151;28;20377;-76
2022/08/06 01:08:53;;;;;;;4.50;3.20;;;;;;;23.23;67.53;100644.09;5034910;28;20029;-75
2022/08/06 01:11:18;;;;;;;5.20;3.50;;;;;;;23.39;66.80;100654.59;5035886;28;20053;-75
2022/08/06 01:13:44;;;;;;;4.50;2.75;;;;;;;23.44;66.74;100641.69;5035920;28;20025;-75
2022/08/06 01:16:26;;;;;;;5.25;3.42;;;;;;;23.27;66.90;100640.22;5035054;28;20516;-74
2022/08/06 01:19:09;;;;;;;6.68;3.92;;;;;;;23.25;67.13;100644.81;5035438;28;20037;-75
2022/08/06 01:21:54;;;;;;;5.40;3.03;;;;;;;23.45;66.61;100656.81;5035878;28;20458;-75
2022/08/06 01:24:41;;;;;;;6.15;3.45;;;;;;;23.63;66.00;100656.47;5034727;28;20105;-75
2022/08/06 01:27:42;;;;;;;5.55;3.22;;;;;;;23.66;65.87;100662.53;5034690;28;20112;-75
2022/08/06 01:30:12;;;;;;;4.97;2.92;;;;;;;23.62;65.55;100661.00;5034598;28;20029;-75
2022/08/06 01:32:44;;;;;;;5.60;3.55;;;;;;;23.51;66.01;100660.91;5035686;28;20029;-75
2022/08/06 01:35:19;;;;;;;6.50;3.05;;;;;;;23.53;65.81;100661.63;5035870;28;20025;-75
2022/08/06 01:37:52;;;;;;;6.30;3.45;;;;;;;23.47;65.54;100673.66;5035383;28;20049;-75
2022/08/06 01:40:26;;;;;;;4.70;3.17;;;;;;;23.40;65.88;100668.84;5035584;28;20043;-75
2022/08/06 01:42:54;;;;;;;5.00;2.80;;;;;;;23.29;65.73;100670.44;5035887;28;20021;-75
2022/08/06 01:45:23;;;;;;;4.07;2.50;;;;;;;23.23;65.85;100668.22;5035476;28;20380;-74
2022/08/06 01:47:53;;;;;;;7.32;2.63;;;;;;;23.13;65.40;100675.16;5035261;28;20469;-74
2022/08/06 01:50:24;;;;;;;4.78;2.53;;;;;;;23.27;65.06;100667.03;5034057;28;20033;-74
2022/08/06 01:52:52;;;;;;;6.35;2.50;;;;;;;23.33;64.56;100674.63;5035289;28;20512;-74
2022/08/06 01:55:19;;;;;;;4.70;2.67;;;;;;;23.17;64.67;100670.44;5035310;28;20029;-74
2022/08/06 01:57:50;;;;;;;6.97;2.42;;;;;;;23.14;64.72;100676.91;5035380;28;20382;-75
2022/08/06 02:00:17;;;;;;;4.70;2.40;;;;;;;22.95;65.48;100697.88;5035319;28;20087;-75
2022/08/06 02:02:44;;;;;;;5.38;2.70;;;;;;;22.92;65.36;100680.19;5035276;28;20047;-75
2022/08/06 02:05:12;;;;;;;4.43;2.22;;;;;;;22.84;65.46;100678.00;5035321;28;20022;-75
2022/08/06 02:07:41;;;;;;;6.60;2.00;;;;;;;22.61;66.17;100697.44;5035309;28;20422;-75
2022/08/06 02:10:09;;;;;;;6.28;2.63;;;;;;;22.54;66.28;100701.47;5035055;28;20029;-75
2022/08/06 02:12:37;;;;;;;5.43;1.90;;;;;;;22.65;65.94;100696.25;5034820;28;20026;-74
2022/08/06 02:15:13;;;;;;;4.97;1.98;;;;;;;22.77;65.10;100702.63;5033657;28;20026;-74
2022/08/06 02:17:43;;;;;;;7.80;2.30;;;;;;;22.62;65.44;100712.53;5035046;28;20026;-75
2022/08/06 02:20:10;;;;;;;5.82;1.83;;;;;;;22.63;65.62;100708.91;5034878;28;20033;-74
2022/08/06 02:22:39;;;;;;;8.15;2.13;;;;;;;22.57;65.69;100703.94;5034625;28;20029;-75
2022/08/06 02:25:10;;;;;;;5.60;1.80;;;;;;;22.63;65.38;100708.91;5034850;28;20075;-75
2022/08/06 02:27:38;;;;;;;4.78;1.90;;;;;;;22.54;65.33;100704.16;5035298;28;20025;-74
2022/08/06 02:30:04;;;;;;;3.40;1.33;;;;;;;22.22;65.06;100708.94;5033684;28;20057;-75
2022/08/06 02:32:29;;;;;;;5.95;1.50;;;;;;;22.29;63.86;100692.38;5034593;28;20033;-75
2022/08/06 02:34:55;;;;;;;4.43;1.15;;;;;;;22.22;64.15;100693.78;5034791;28;20511;-75
2022/08/06 02:37:33;;;;;;;3.58;1.05;;;;;;;22.22;63.34;100695.56;5016382;28;20140;-75
2022/08/06 02:40:08;;;;;;;4.38;1.17;;;;;;;21.84;63.42;100699.72;5034397;28;20083;-75
2022/08/06 02:42:58;;;;;;;7.18;1.20;;;;;;;22.11;63.17;100709.63;5033067;28;20021;-76
2022/08/06 02:45:36;;;;;;;4.15;1.00;;;;;;;21.60;61.68;100710.16;5032950;28;20508;-76
2022/08/06 02:48:19;;;;;;;2.17;0.80;;;;;;;21.82;61.38;100709.69;5034374;28;20033;-77
2022/08/06 02:50:48;;;;;;;1.63;0.82;;;;;;;21.63;62.28;100718.00;5033890;28;20026;-77
2022/08/06 02:53:18;;;;;;;1.50;0.60;;;;;;;21.75;61.06;100723.53;5034493;28;20037;-77
2022/08/06 02:55:47;;;;;;;2.55;0.80;;;;;;;21.52;61.30;100724.97;5034235;28;20021;-76
2022/08/06 02:58:35;;;;;;;2.58;0.75;;;;;;;21.57;61.63;100726.38;5034388;28;20021;-77
2022/08/06 03:01:06;;;;;;;3.90;0.70;;;;;;;21.90;60.12;100719.88;5034010;28;20021;-78
2022/08/06 03:03:33;;;;;;;1.15;0.50;;;;;;;22.02;60.48;100718.22;5032738;28;20433;-77
2022/08/06 03:06:02;;;;;;;2.38;0.50;;;;;;;22.16;60.07;100720.91;5032751;28;20120;-76
2022/08/06 03:08:30;;;;;;;3.83;0.90;;;;;;;22.19;59.83;100719.88;5033972;28;20018;-77
2022/08/06 03:10:57;;;;;;;2.85;0.70;;;;;;;22.11;59.98;100728.34;5034025;28;20473;-77
2022/08/06 03:13:23;;;;;;;1.67;0.47;;;;;;;22.18;59.51;100735.03;5033928;28;20064;-77
2022/08/06 03:15:50;;;;;;;3.20;0.60;;;;;;;22.22;59.52;100739.28;5033806;28;20029;-77
2022/08/06 03:18:16;;;;;;;4.80;0.80;;;;;;;22.21;59.37;100745.56;5033942;28;20025;-77
2022/08/06 03:20:43;;;;;;;3.03;0.68;;;;;;;21.73;60.14;100761.03;5032488;28;20033;-77
2022/08/06 03:23:11;;;;;;;2.05;0.43;;;;;;;21.77;60.24;100751.88;5033848;28;20036;-77
2022/08/06 03:25:39;;;;;;;1.67;0.50;;;;;;;21.75;60.17;100752.94;5033814;28;20030;-76
2022/08/06 03:28:05;;;;;;;1.80;0.50;;;;;;;21.83;60.01;100756.00;5033485;28;20017;-77
2022/08/06 03:30:32;;;;;;;2.13;0.60;;;;;;;21.83;59.99;100756.00;5033579;28;20036;-77
2022/08/06 03:33:00;;;;;;;3.25;0.70;;;;;;;21.41;60.92;100765.69;5032263;28;20033;-77
2022/08/06 03:35:26;;;;;;;2.28;0.65;;;;;;;21.61;60.47;100767.16;5032278;28;20027;-76
2022/08/06 03:37:53;;;;;;;1.85;0.60;;;;;;;21.43;60.51;100795.03;5033341;28;20136;-76
2022/08/06 03:40:20;;;;;;;2.15;0.60;;;;;;;21.57;60.77;100790.53;5033417;28;20022;-77
2022/08/06 03:42:46;;;;;;;2.97;0.82;;;;;;;21.56;60.41;100793.31;5032007;28;20355;-76
2022/08/06 03:45:12;;;;;;;2.72;0.60;;;;;;;21.74;59.88;100799.34;5033557;28;20040;-77
2022/08/06 03:47:44;;;;;;;1.40;0.50;;;;;;;21.40;60.29;100799.59;5033575;28;20031;-77
2022/08/06 03:50:11;;;;;;;4.10;1.00;;;;;;;21.32;60.95;100815.22;5033569;28;20029;-77
2022/08/06 03:52:42;;;;;;;1.55;0.65;;;;;;;21.42;60.54;100798.63;5033522;28;20120;-75
2022/08/06 03:55:18;;;;;;;2.47;0.70;;;;;;;21.33;60.50;100790.22;5033739;28;20101;-74
2022/08/06 03:57:48;;;;;;;2.72;0.60;;;;;;;21.38;60.50;100804.19;5033966;28;20075;-74
2022/08/06 04:00:16;;;;;;;4.03;0.57;;;;;;;21.35;60.48;100812.38;5033494;28;20087;-73
2022/08/06 04:02:48;;;;;;;2.00;0.70;;;;;;;21.42;60.22;100814.66;5033367;28;20038;-73
2022/08/06 04:05:26;;;;;;;2.40;0.60;;;;;;;21.56;59.94;100833.44;5032083;28;20025;-74
2022/08/06 04:07:58;;;;;;;1.75;0.50;;;;;;;21.42;60.21;100830.72;5033165;28;20469;-74
2022/08/06 04:10:30;;;;;;;0.93;0.47;;;;;;;21.24;60.45;100838.84;5033243;28;20026;-74
2022/08/06 04:12:57;;;;;;;2.00;0.47;;;;;;;21.47;59.74;100839.34;5033222;28;20026;-74
2022/08/06 04:15:22;;;;;;;2.35;0.52;;;;;;;21.46;59.68;100840.25;5032191;28;20038;-75
2022/08/06 04:17:51;;;;;;;2.17;0.50;;;;;;;21.52;59.60;100853.28;5033315;28;20032;-76
2022/08/06 04:20:20;;;;;;;1.40;0.40;;;;;;;21.47;59.53;100847.34;5033012;28;20075;-76
2022/08/06 04:22:45;;;;;;;1.17;0.40;;;;;;;21.44;59.58;100858.22;5033079;28;20033;-76
2022/08/06 04:25:11;;;;;;;3.92;0.50;;;;;;;21.49;59.12;100859.66;5033308;28;20037;-76
2022/08/06 04:27:40;;;;;;;2.00;0.52;;;;;;;21.48;58.90;100863.28;5033033;28;20026;-76
2022/08/06 04:30:06;;;;;;;1.42;0.57;;;;;;;21.35;58.65;100868.50;5033202;28;20025;-77
2022/08/06 04:32:33;;;;;;;1.88;0.50;;;;;;;21.42;58.51;100879.69;5033008;28;20138;-76
2022/08/06 04:35:07;;;;;;;1.65;0.40;;;;;;;21.28;58.64;100871.59;5032964;28;20055;-77
2022/08/06 04:37:34;;;;;;;2.13;0.60;;;;;;;21.32;58.69;100874.03;5032818;28;20143;-77
2022/08/06 04:40:00;;;;;;;0.95;0.43;;;;;;;21.29;58.83;100873.31;5033124;28;20420;-77
2022/08/06 04:42:25;;;;;;;3.17;0.70;;;;;;;21.20;59.00;100885.41;5031898;28;20111;-77
2022/08/06 04:44:52;;;;;;;0.82;0.50;;;;;;;21.36;58.49;100896.94;5033088;28;20481;-77
2022/08/06 04:47:18;;;;;;;1.67;0.50;;;;;;;21.52;58.46;100885.34;5033066;28;20121;-77
2022/08/06 04:49:43;;;;;;;2.90;0.43;;;;;;;21.59;58.09;100890.25;5032857;28;20108;-77
2022/08/06 04:52:20;;;;;;;2.22;0.50;;;;;;;21.30;58.81;100905.28;5032775;28;20362;-77
2022/08/06 04:54:45;;;;;;;2.65;0.52;;;;;;;21.32;59.23;100911.44;5035071;28;20032;-77
2022/08/06 04:57:10;;;;;;;2.15;0.50;;;;;;;21.23;59.22;100911.94;5036641;28;20037;-77
2022/08/06 04:59:36;;;;;;;2.90;0.40;;;;;;;21.30;59.19;100904.41;5036452;28;20477;-77
2022/08/06 05:02:01;;;;;;;1.95;0.55;;;;;;;21.43;58.50;100908.16;5035008;28;20026;-77
2022/08/06 05:04:29;;;;;;;2.10;0.60;;;;;;;21.46;58.43;100917.78;5018776;28;20080;-77
2022/08/06 05:07:20;;;;;;;3.03;0.82;;;;;;;21.53;58.17;100911.13;5036293;28;20056;-76
2022/08/06 05:09:45;;;;;;;1.80;0.40;;;;;;;21.64;57.98;100924.72;5034630;28;20037;-77
2022/08/06 05:12:34;;;;;;;2.47;0.50;;;;;;;21.98;57.19;100925.38;5018469;28;20421;-77
2022/08/06 05:15:10;;;;;;;4.03;0.43;;;;;;;21.79;57.21;100923.81;5031944;28;20037;-77
2022/08/06 05:17:41;;;;;;;1.92;0.57;;;;;;;21.76;57.14;100915.13;5036100;28;20473;-77
2022/08/06 05:20:15;;;;;;;1.30;0.50;;;;;;;21.78;56.89;100918.56;5034885;28;20163;-76
2022/08/06 05:22:42;;;;;;;1.67;0.50;;;;;;;21.63;57.53;100933.72;5035827;28;20439;-77
2022/08/06 05:25:08;;;;;;;1.42;0.50;;;;;;;21.77;57.02;100936.41;5035835;28;20026;-77
2022/08/06 05:27:33;;;;;;;1.40;0.50;;;;;;;21.46;57.34;100944.50;5035766;28;20051;-76
2022/08/06 05:30:01;;;;;;;2.38;0.50;;;;;;;21.55;57.44;100935.97;5034691;28;20026;-77
2022/08/06 05:32:26;;;;;;;2.63;0.60;;;;;;;21.68;57.09;100944.13;5035783;28;20095;-77
2022/08/06 05:34:52;;;;;;;2.50;0.50;;;;;;;21.66;56.92;100952.22;5034630;28;20385;-77
2022/08/06 05:37:17;;;;;;;2.33;0.40;;;;;;;21.59;57.07;100946.41;5035422;28;20042;-77
2022/08/06 05:39:43;;;;;;;2.38;0.50;;;;;;;21.62;56.63;100964.06;5017852;28;20414;-77
2022/08/06 05:42:08;;;;;;;2.03;0.70;;;;;;;21.78;56.48;100951.53;5035538;28;20032;-77
2022/08/06 05:44:34;;;;;;;0.77;0.30;;;;;;;21.89;56.29;100942.84;5034369;28;20021;-77
2022/08/06 05:47:10;;;;;;;2.30;0.50;;;;;;;21.99;56.04;100948.53;5018054;28;20037;-77
2022/08/06 05:49:45;;;;;;;1.23;0.50;;;;;;;21.86;55.19;100959.97;5035525;28;20018;-76
2022/08/06 05:52:19;;;;;;;2.83;0.40;;;;;;;22.04;55.64;100957.13;5035257;28;20072;-77
2022/08/06 05:54:50;;;;;;;0.70;0.40;;;;;;;22.02;55.62;100969.72;5035520;28;20025;-77
2022/08/06 05:57:24;;;;;;;1.08;0.50;;;;;;;22.01;55.72;100978.72;5035451;28;20029;-77
2022/08/06 05:59:53;;;;;;;2.72;0.38;;;;;;;22.16;55.17;100972.47;5035354;28;20040;-77
2022/08/06 06:02:21;;;;;;;1.45;0.60;;;;;;;22.40;54.80;100977.28;5035139;28;20099;-77
2022/08/06 06:04:47;;;;;;;2.05;0.70;;;;;;;22.42;54.72;100981.56;5033549;28;20469;-77
2022/08/06 06:07:14;;;;;;;3.55;0.60;;;;;;;22.35;54.92;100983.78;5035175;28;20021;-77
2022/08/06 06:09:41;;;;;;;2.38;0.52;;;;;;;22.58;54.43;100987.72;5033835;28;20021;-71
2022/08/06 06:12:08;;;;;;;1.15;0.30;;;;;;;22.83;53.92;100980.81;5034964;28;20453;-78
2022/08/06 06:14:39;;;;;;;0.63;0.40;;;;;;;22.98;52.86;100985.25;5034919;28;20469;-77
2022/08/06 06:17:23;;;;;;;1.05;0.40;;;;;;;22.99;53.83;100988.78;5033623;28;20037;-77
2022/08/06 06:19:56;;;;;;;1.08;0.40;;;;;;;23.04;53.38;100997.38;5035058;28;20029;-76
2022/08/06 06:22:34;;;;;;;1.23;0.47;;;;;;;23.02;53.47;100996.59;5033429;28;20103;-77
2022/08/06 06:25:15;;;;;;;1.45;0.47;;;;;;;22.79;53.83;100992.69;5034856;28;20026;-77
2022/08/06 06:27:57;;;;;;;1.33;0.50;;;;;;;22.79;53.90;100998.91;5034598;28;20025;-77
2022/08/06 06:31:11;;;;;;;1.92;0.50;;;;;;;22.99;52.60;101007.53;5034796;28;20108;-76
2022/08/06 06:33:47;;;;;;;2.58;0.65;;;;;;;23.08;52.61;101006.94;5012810;28;20088;-77
2022/08/06 06:36:31;;;;;;;1.42;0.40;;;;;;;23.21;53.11;101009.69;5012707;28;20040;-75
2022/08/06 06:39:08;;;;;;;1.58;0.60;;;;;;;23.35;52.55;101017.72;4996801;28;20046;-76
2022/08/06 06:41:47;;;;;;;2.90;0.57;;;;;;;22.97;52.88;101001.41;4993789;28;20030;-77
2022/08/06 06:44:29;;;;;;;4.90;0.60;;;;;;;22.94;53.66;101002.47;4993526;28;20549;-77
2022/08/06 06:47:12;;;;;;;2.67;0.65;;;;;;;22.92;53.39;101003.53;4994886;28;20068;-77
2022/08/06 06:49:46;;;;;;;2.00;0.82;;;;;;;23.14;53.51;100997.63;4994856;28;20466;-78
2022/08/06 06:52:43;;;;;;;3.25;0.50;;;;;;;23.17;52.22;100997.44;4994944;28;20030;-77
2022/08/06 06:55:51;;;;;;;2.80;0.70;;;;;;;23.35;51.87;100994.44;4994898;28;20026;-77
2022/08/06 06:58:40;;;;;;;1.65;0.60;;;;;;;23.58;51.61;100998.28;4994258;28;20046;-77
2022/08/06 07:01:09;;;;;;;1.65;0.50;;;;;;;24.05;50.97;101006.81;4994756;28;20023;-77
2022/08/06 07:03:38;;;;;;;1.58;0.40;;;;;;;23.99;51.00;101001.88;4994857;28;20073;-77
2022/08/06 07:06:05;;;;;;;2.70;0.57;;;;;;;24.08;50.64;101007.47;4993778;28;20032;-77
2022/08/06 07:08:33;;;;;;;1.50;0.55;;;;;;;23.93;50.47;101015.69;4993512;28;20031;-77
2022/08/06 07:11:00;;;;;;;1.15;0.40;;;;;;;23.97;50.49;101018.06;4994441;28;20101;-77
2022/08/06 07:13:27;;;;;;;1.63;0.50;;;;;;;23.94;50.39;101020.09;4993222;28;20133;-77
2022/08/06 07:15:54;;;;;;;2.70;0.70;;;;;;;23.47;50.97;101029.47;4993922;28;20474;-77
2022/08/06 07:18:21;;;;;;;1.67;0.52;;;;;;;22.99;51.51;101027.16;4993227;28;20041;-78
2022/08/06 07:20:47;;;;;;;1.17;0.50;;;;;;;23.19;51.84;101019.66;4977170;28;20041;-77
2022/08/06 07:23:16;;;;;;;2.78;0.50;;;;;;;23.36;51.50;101014.91;5009740;28;20476;-77
2022/08/06 07:25:45;;;;;;;1.65;0.60;;;;;;;23.53;51.07;101021.00;4994414;28;20022;-78
2022/08/06 07:28:12;;;;;;;1.40;0.50;;;;;;;23.28;51.18;101006.50;4992953;28;20471;-78
2022/08/06 07:30:40;;;;;;;1.25;0.70;;;;;;;23.35;50.43;101020.38;4994369;28;20030;-77
2022/08/06 07:33:08;;;;;;;2.47;0.60;;;;;;;23.28;50.97;101022.59;4994448;28;20073;-77
2022/08/06 07:35:35;;;;;;;2.60;0.70;;;;;;;23.67;50.21;101030.88;4993290;28;20348;-77
2022/08/06 07:38:03;;;;;;;2.50;0.70;;;;;;;23.80;49.92;101016.53;5012007;28;20046;-78
2022/08/06 07:40:31;;;;;;;2.97;0.50;;;;;;;24.02;48.85;101041.94;5033481;28;20033;-77
2022/08/06 07:43:11;;;;;;;1.75;0.57;;;;;;;23.61;48.36;101040.13;5033489;28;20067;-78
2022/08/06 07:45:37;;;;;;;1.23;0.47;;;;;;;23.85;49.20;101049.25;5032312;28;20112;-78
2022/08/06 07:48:07;;;;;;;1.38;0.40;;;;;;;23.64;49.59;101053.34;5032302;28;20545;-78
2022/08/06 07:50:33;;;;;;;2.15;0.50;;;;;;;23.79;48.87;101060.41;5033585;28;20040;-78
2022/08/06 07:52:58;;;;;;;2.22;0.60;;;;;;;23.55;48.78;101059.31;5032062;28;20029;-77
2022/08/06 07:55:26;;;;;;;2.15;0.50;;;;;;;23.92;48.31;101056.91;5032271;28;20468;-77
2022/08/06 07:57:56;;;;;;;1.38;0.45;;;;;;;24.07;47.73;101056.75;5033694;28;20496;-78
2022/08/06 08:00:23;;;;;;;1.77;0.70;;;;;;;24.09;47.74;101067.38;5033461;28;20029;-77
2022/08/06 08:08:22;;;;;;;5.40;0.88;;;;;;;24.01;48.26;101077.75;5033628;28;20060;-77
2022/08/06 08:10:48;;;;;;;1.35;0.55;;;;;;;24.26;47.43;101080.53;5033333;28;20026;-77
2022/08/06 08:13:18;;;;;;;2.28;0.60;;;;;;;24.24;47.56;101082.44;5033350;28;20116;-77
2022/08/06 08:15:45;;;;;;;0.70;0.40;;;;;;;24.35;47.11;101095.16;5033145;28;20361;-77
2022/08/06 08:18:10;;;;;;;2.03;0.50;;;;;;;24.47;46.75;101093.50;5033132;28;20040;-77
2022/08/06 08:20:37;;;;;;;1.08;0.40;;;;;;;24.08;47.56;101092.50;5033050;28;20025;-77
2022/08/06 08:23:05;;;;;;;1.98;0.50;;;;;;;24.24;47.92;101092.34;5033374;28;20074;-78
2022/08/06 08:25:31;;;;;;;4.78;0.88;;;;;;;24.01;47.56;101096.56;5031967;28;20427;-78
2022/08/06 08:27:56;;;;;;;1.20;0.30;;;;;;;24.29;47.57;101098.25;5035626;28;20517;-78
2022/08/06 08:30:22;;;;;;;2.00;0.50;;;;;;;24.08;47.77;101105.91;5036051;28;20037;-78
2022/08/06 08:32:47;;;;;;;4.53;0.52;;;;;;;23.81;47.74;101124.69;5035609;28;20516;-78
2022/08/06 08:35:15;;;;;;;2.60;0.60;;;;;;;23.90;48.20;101112.50;5037071;28;20029;-77
2022/08/06 08:37:41;;;;;;;3.72;0.55;;;;;;;23.67;48.25;101114.88;5036652;28;20053;-78
2022/08/06 08:40:07;;;;;;;2.03;0.40;;;;;;;23.73;48.23;101108.25;5035627;28;20036;-78
2022/08/06 08:42:48;;;;;;;5.28;0.60;;;;;;;23.60;48.09;101109.00;5036904;28;20038;-78
2022/08/06 08:45:15;;;;;;;1.13;0.40;;;;;;;23.72;48.04;101112.75;5036600;28;20507;-78
2022/08/06 08:47:45;;;;;;;1.95;0.50;;;;;;;23.66;48.33;101112.28;5036657;28;20056;-77
2022/08/06 08:50:11;;;;;;;2.10;0.60;;;;;;;23.85;48.03;101115.50;5036690;28;20022;-78
2022/08/06 08:52:44;;;;;;;1.25;0.32;;;;;;;23.80;47.83;101131.91;5036677;28;20022;-78
2022/08/06 08:55:14;;;;;;;3.63;0.60;;;;;;;23.75;48.37;101117.06;5035502;28;20029;-78
2022/08/06 08:57:40;;;;;;;2.05;0.55;;;;;;;23.52;48.14;101110.47;5036718;28;20572;-78
2022/08/06 09:00:07;;;;;;;3.42;0.40;;;;;;;23.87;47.70;101115.41;5036485;28;20033;-78
2022/08/06 09:02:33;;;;;;;1.75;0.60;;;;;;;23.86;47.29;101127.97;5036464;28;20427;-78
2022/08/06 09:04:59;;;;;;;1.75;0.50;;;;;;;24.20;46.32;101128.41;5036431;28;20033;-77
2022/08/06 09:07:27;;;;;;;1.77;0.75;;;;;;;24.39;45.53;101150.41;5035168;28;20056;-78
2022/08/06 09:09:54;;;;;;;4.22;0.60;;;;;;;24.36;44.95;101152.41;5034867;28;20025;-78
2022/08/06 09:12:22;;;;;;;3.97;0.60;;;;;;;24.82;44.90;101147.47;5034898;28;20497;-78
2022/08/06 09:14:47;;;;;;;1.30;0.40;;;;;;;24.49;45.45;101159.56;5034965;28;20112;-78
2022/08/06 09:17:13;;;;;;;0.93;0.52;;;;;;;23.75;46.53;101165.38;5036262;28;20029;-79
2022/08/06 09:19:38;;;;;;;3.58;0.50;;;;;;;24.04;46.34;101163.47;5034775;28;20337;-78
2022/08/06 09:22:04;;;;;;;1.55;0.50;;;;;;;24.37;45.16;101167.53;5034904;28;20032;-78
2022/08/06 09:24:30;;;;;;;2.22;0.60;;;;;;;24.32;45.54;101166.03;5036030;28;20033;-78
2022/08/06 09:27:06;;;;;;;1.52;0.40;;;;;;;24.59;44.38;101192.03;5034713;28;20065;-77
2022/08/06 09:29:33;;;;;;;1.75;0.40;;;;;;;24.48;44.50;101165.03;5035918;28;20022;-77
2022/08/06 09:31:59;;;;;;;2.55;0.50;;;;;;;24.88;44.27;101173.91;5035879;28;20021;-78
2022/08/06 09:34:38;;;;;;;1.58;0.45;;;;;;;24.78;44.43;101176.41;5034621;28;20021;-78
2022/08/06 09:37:05;;;;;;;1.40;0.40;;;;;;;24.79;44.55;101179.94;5035565;28;20033;-78
2022/08/06 09:39:39;;;;;;;0.98;0.50;;;;;;;24.58;44.42;101183.13;5033875;28;20040;-77
2022/08/06 09:42:05;;;;;;;1.33;0.43;;;;;;;24.47;43.71;101207.16;5035617;28;20021;-78
2022/08/06 09:44:30;;;;;;;2.83;0.52;;;;;;;24.02;43.55;101197.59;5035848;28;20056;-77
2022/08/06 09:46:57;;;;;;;1.33;0.40;;;;;;;23.95;43.13;101215.06;5035454;28;20030;-77
2022/08/06 09:49:23;;;;;;;1.42;0.40;;;;;;;23.90;43.77;101203.75;5035398;28;20358;-78
2022/08/06 09:51:48;;;;;;;2.55;0.38;;;;;;;24.15;44.03;101198.53;5035461;28;20476;-78
2022/08/06 09:54:17;;;;;;;1.63;0.40;;;;;;;24.31;43.53;101218.03;5034673;28;20025;-77
2022/08/06 09:56:43;;;;;;;2.67;0.40;;;;;;;24.46;43.31;101226.94;5034094;28;20396;-77
2022/08/06 09:59:10;;;;;;;1.70;0.40;;;;;;;24.30;43.22;101216.31;5034202;28;20029;-77
2022/08/06 10:01:44;;;;;;;1.75;0.50;;;;;;;24.37;42.10;101224.81;5035378;28;20026;-78
2022/08/06 10:04:28;;;;;;;1.52;0.40;;;;;;;24.30;42.57;101216.31;5035444;28;20037;-77
2022/08/06 10:06:56;;;;;;;1.52;0.40;;;;;;;24.62;42.85;101210.66;5035225;28;20025;-79
2022/08/06 10:09:22;;;;;;;1.25;0.40;;;;;;;24.82;42.43;101210.16;5033864;28;20028;-78
2022/08/06 10:11:47;;;;;;;2.88;0.40;;;;;;;24.55;42.96;101212.03;5035193;28;20029;-78
2022/08/06 10:14:33;;;;;;;1.70;0.50;;;;;;;24.62;41.72;101215.16;5033648;28;20048;-78
2022/08/06 10:17:12;;;;;;;1.42;0.40;;;;;;;24.61;42.18;101218.78;5033680;28;20022;-78
2022/08/06 10:19:41;;;;;;;1.40;0.40;;;;;;;24.69;41.94;101219.13;5034968;28;20057;-78
2022/08/06 10:22:09;;;;;;;2.35;0.40;;;;;;;24.71;41.71;101220.75;5035091;28;20017;-77
2022/08/06 10:24:46;;;;;;;2.70;0.50;;;;;;;25.04;39.93;101232.84;5050281;28;20029;-76
2022/08/06 10:27:15;;;;;;;0.77;0.30;;;;;;;25.40;39.74;101229.47;5034732;28;20104;-77
2022/08/06 10:29:54;;;;;;;0.95;0.20;;;;;;;25.40;39.62;101216.00;5034923;28;20465;-78
2022/08/06 10:32:36;;;;;;;0.70;0.22;;;;;;;25.62;38.77;101215.38;5033555;28;20120;-77
2022/08/06 10:35:04;;;;;;;2.08;0.30;;;;;;;25.99;38.27;101221.66;5034874;28;20159;-77
2022/08/06 10:37:36;;;;;;;1.23;0.30;;;;;;;26.27;37.39;101214.25;5034512;28;20041;-78
2022/08/06 10:40:03;;;;;;;3.30;0.60;;;;;;;26.04;38.75;101222.16;5034728;28;20017;-77
2022/08/06 10:42:29;;;;;;;3.55;0.50;;;;;;;25.70;38.86;101223.75;5033268;28;20123;-78
2022/08/06 10:44:57;;;;;;;2.70;0.30;;;;;;;25.14;38.44;101227.75;5033227;28;20385;-78
2022/08/06 10:47:23;;;;;;;2.22;0.40;;;;;;;25.77;38.06;101221.44;5034390;28;20077;-78
2022/08/06 10:49:49;;;;;;;1.38;0.50;;;;;;;26.37;36.99;101230.56;5034372;28;20029;-77
2022/08/06 10:52:15;;;;;;;0.98;0.30;;;;;;;26.26;35.93;101228.69;5033737;28;20044;-78
2022/08/06 10:54:41;;;;;;;2.78;0.30;;;;;;;26.00;37.10;101217.13;5032956;28;20056;-77
2022/08/06 10:57:12;;;;;;;1.48;0.20;;;;;;;25.08;35.13;101237.91;5016762;28;20071;-77
2022/08/06 10:59:42;;;;;;;4.35;0.32;;;;;;;24.75;37.21;101238.41;5033062;28;20029;-78
2022/08/06 11:02:30;;;;;;;1.95;0.30;;;;;;;24.60;37.43;101228.69;5032999;28;20021;-77
2022/08/06 11:04:59;;;;;;;0.80;0.20;;;;;;;24.20;38.18;101250.09;5033391;28;20484;-78
2022/08/06 11:07:27;;;;;;;1.95;0.30;;;;;;;23.67;38.72;101235.59;5032907;28;20461;-78
2022/08/06 11:10:14;;;;;;;0.95;0.30;;;;;;;23.95;38.22;101242.75;5033098;28;20028;-77
2022/08/06 11:13:06;;;;;;;2.60;0.30;;;;;;;23.25;39.30;101281.97;5033249;28;20025;-78
2022/08/06 11:15:36;;;;;;;2.13;0.38;;;;;;;23.12;39.58;101260.41;5034061;28;20032;-78
2022/08/06 11:18:06;;;;;;;0.88;0.30;;;;;;;22.85;40.05;101249.47;5034033;28;20025;-77
2022/08/06 11:20:31;;;;;;;1.92;0.30;;;;;;;23.38;39.83;101252.59;5032790;28;20477;-78
2022/08/06 11:22:58;;;;;;;2.38;0.38;;;;;;;23.38;39.19;101252.59;5033801;28;20029;-77
2022/08/06 11:25:40;;;;;;;1.35;0.32;;;;;;;23.29;38.83;101251.34;5032376;28;20029;-78
2022/08/06 11:28:07;;;;;;;1.27;0.30;;;;;;;23.27;39.41;101250.59;5033835;28;20369;-78
2022/08/06 11:30:53;;;;;;;1.77;0.22;;;;;;;23.63;37.45;101242.09;5033789;28;20033;-78
2022/08/06 11:33:42;;;;;;;0.60;0.20;;;;;;;23.61;37.32;101233.25;5033625;28;20029;-77
2022/08/06 11:36:10;;;;;;;2.30;0.50;;;;;;;23.82;37.62;101226.59;5030624;28;20068;-78
2022/08/06 11:38:51;;;;;;;2.80;0.40;;;;;;;24.09;37.68;101240.03;5033938;28;20068;-78
2022/08/06 11:41:21;;;;;;;2.38;0.30;;;;;;;24.18;35.65;101233.22;5032501;28;20108;-78
2022/08/06 11:43:52;;;;;;;1.48;0.28;;;;;;;24.69;33.99;101244.19;5033714;28;20068;-78